createdAt,value
2022-10-17T00:00:07.784Z,9.65
2022-10-17T00:02:34.801Z,9.32
2022-10-17T00:05:01.971Z,9.10
2022-10-17T00:07:29.470Z,10.77
2022-10-17T00:09:56.980Z,11.20
2022-10-17T00:12:24.016Z,11.23
2022-10-17T00:14:51.002Z,9.63
2022-10-17T00:17:18.070Z,9.40
2022-10-17T00:19:51.302Z,11.23
2022-10-17T00:22:18.349Z,10.40
2022-10-17T00:24:46.846Z,10.10
2022-10-17T00:27:16.992Z,9.83
2022-10-17T00:29:46.129Z,9.00
2022-10-17T00:32:16.251Z,10.40
2022-10-17T00:34:43.300Z,8.63
2022-10-17T00:37:10.642Z,10.65
2022-10-17T00:39:37.691Z,9.90
2022-10-17T00:42:05.076Z,10.38
2022-10-17T00:44:34.908Z,10.63
2022-10-17T00:47:07.192Z,11.02
2022-10-17T00:49:36.529Z,9.25
2022-10-17T00:52:06.231Z,11.10
2022-10-17T00:54:41.045Z,10.93
2022-10-17T00:57:15.280Z,11.15
2022-10-17T00:59:43.355Z,10.05
2022-10-17T01:02:13.257Z,11.70
2022-10-17T01:04:42.128Z,11.60
2022-10-17T01:07:12.246Z,11.90
2022-10-17T01:09:40.200Z,13.55
2022-10-17T01:12:10.264Z,11.05
2022-10-17T01:15:00.605Z,11.25
2022-10-17T01:17:38.661Z,11.43
2022-10-17T01:20:20.829Z,11.15
2022-10-17T01:23:13.088Z,12.93
2022-10-17T01:25:46.153Z,12.48
2022-10-17T01:28:19.401Z,12.80
2022-10-17T01:31:01.319Z,12.45
2022-10-17T01:33:28.316Z,12.60
2022-10-17T01:36:05.641Z,13.73
2022-10-17T01:38:38.891Z,13.65
2022-10-17T01:41:26.171Z,12.07
2022-10-17T01:44:31.143Z,13.18
2022-10-17T01:47:08.410Z,11.67
2022-10-17T01:49:36.235Z,14.30
2022-10-17T01:52:23.773Z,13.68
2022-10-17T01:54:59.690Z,16.60
2022-10-17T01:57:32.315Z,13.65
2022-10-17T02:00:00.379Z,13.50
2022-10-17T02:02:28.814Z,15.18
2022-10-17T02:04:58.548Z,14.82
2022-10-17T02:07:28.965Z,12.63
2022-10-17T02:09:56.213Z,12.35
2022-10-17T02:12:28.599Z,13.63
2022-10-17T02:14:58.390Z,14.60
2022-10-17T02:17:38.936Z,12.00
2022-10-17T02:20:23.366Z,11.60
2022-10-17T02:22:53.144Z,14.30
2022-10-17T02:25:24.117Z,14.13
2022-10-17T02:27:54.097Z,11.15
2022-10-17T02:30:21.148Z,14.13
2022-10-17T02:32:53.194Z,13.88
2022-10-17T02:35:20.868Z,12.98
2022-10-17T02:37:52.410Z,12.55
2022-10-17T02:40:21.584Z,12.87
2022-10-17T02:42:49.137Z,14.65
2022-10-17T02:45:16.506Z,15.07
2022-10-17T02:48:01.889Z,12.13
2022-10-17T02:50:34.766Z,13.13
2022-10-17T02:53:07.796Z,14.52
2022-10-17T02:55:37.392Z,11.83
2022-10-17T02:58:07.384Z,13.50
2022-10-17T03:00:35.350Z,13.77
2022-10-17T03:03:02.381Z,15.15
2022-10-17T03:05:30.226Z,12.10
2022-10-17T03:07:57.441Z,13.60
2022-10-17T03:10:24.462Z,13.88
2022-10-17T03:12:54.520Z,12.25
2022-10-17T03:15:21.539Z,14.43
2022-10-17T03:17:48.586Z,13.32
2022-10-17T03:20:15.601Z,14.88
2022-10-17T03:22:42.618Z,13.80
2022-10-17T03:25:12.031Z,15.07
2022-10-17T03:27:39.251Z,13.10
2022-10-17T03:30:06.637Z,14.32
2022-10-17T03:32:34.488Z,13.25
2022-10-17T03:35:01.603Z,12.88
2022-10-17T03:37:28.879Z,12.77
2022-10-17T03:39:59.229Z,11.60
2022-10-17T03:42:29.092Z,11.48
2022-10-17T03:44:58.928Z,14.20
2022-10-17T03:47:32.406Z,13.25
2022-10-17T03:49:59.732Z,12.48
2022-10-17T03:52:26.882Z,10.75
2022-10-17T03:54:53.956Z,12.45
2022-10-17T03:57:21.011Z,12.82
2022-10-17T03:59:48.024Z,12.13
2022-10-17T04:02:15.067Z,13.10
2022-10-17T04:04:48.357Z,13.77
2022-10-17T04:07:15.382Z,14.60
2022-10-17T04:09:42.430Z,12.93
2022-10-17T04:12:09.504Z,13.90
2022-10-17T04:14:37.551Z,13.88
2022-10-17T04:17:04.804Z,12.32
2022-10-17T04:19:31.886Z,11.02
2022-10-17T04:21:58.945Z,14.93
2022-10-17T04:24:26.406Z,12.82
2022-10-17T04:26:54.655Z,14.00
2022-10-17T04:29:21.957Z,15.70
2022-10-17T04:31:49.821Z,15.63
2022-10-17T04:34:16.854Z,14.75
2022-10-17T04:36:43.928Z,13.87
2022-10-17T04:39:11.038Z,12.48
2022-10-17T04:41:38.102Z,15.13
2022-10-17T04:44:05.179Z,12.32
2022-10-17T04:46:34.680Z,13.70
2022-10-17T04:49:01.749Z,11.60
2022-10-17T04:51:28.873Z,12.20
2022-10-17T04:53:55.924Z,11.52
2022-10-17T04:56:23.974Z,11.63
2022-10-17T05:01:39.724Z,13.70
2022-10-17T05:04:16.965Z,12.10
2022-10-17T05:06:49.925Z,15.55
2022-10-17T05:09:16.934Z,11.30
2022-10-17T05:11:43.962Z,11.52
2022-10-17T05:14:13.298Z,12.75
2022-10-17T05:16:42.157Z,12.10
2022-10-17T05:19:09.178Z,11.95
2022-10-17T05:21:37.350Z,10.80
2022-10-17T05:24:08.550Z,12.48
2022-10-17T05:26:37.951Z,11.13
2022-10-17T05:29:06.411Z,11.90
2022-10-17T05:31:33.486Z,12.13
2022-10-17T05:34:07.984Z,10.82
2022-10-17T05:36:37.520Z,10.97
2022-10-17T05:39:08.567Z,14.50
2022-10-17T05:41:35.800Z,10.52
2022-10-17T05:44:05.509Z,11.23
2022-10-17T05:46:32.978Z,11.37
2022-10-17T05:49:01.235Z,10.93
2022-10-17T05:51:28.394Z,10.95
2022-10-17T05:53:58.699Z,10.65
2022-10-17T05:56:28.804Z,9.98
2022-10-17T05:59:00.656Z,12.30
2022-10-17T06:01:28.375Z,9.45
2022-10-17T06:03:58.166Z,9.75
2022-10-17T06:06:31.314Z,11.43
2022-10-17T06:08:58.400Z,8.43
2022-10-17T06:11:31.221Z,12.40
2022-10-17T06:13:58.234Z,11.57
2022-10-17T06:16:25.312Z,10.15
2022-10-17T06:18:52.367Z,11.23
2022-10-17T06:21:20.924Z,10.68
2022-10-17T06:23:48.848Z,10.38
2022-10-17T06:26:18.732Z,10.30
2022-10-17T06:28:46.403Z,9.73
2022-10-17T06:31:14.569Z,10.67
2022-10-17T06:33:41.639Z,8.85
2022-10-17T06:36:10.892Z,11.02
2022-10-17T06:38:40.223Z,10.27
2022-10-17T06:41:18.861Z,9.98
2022-10-17T06:43:49.851Z,8.30
2022-10-17T06:46:17.928Z,10.47
2022-10-17T06:48:45.579Z,10.23
2022-10-17T06:51:13.013Z,7.77
2022-10-17T06:53:40.774Z,10.40
2022-10-17T06:56:08.987Z,9.60
2022-10-17T06:58:39.593Z,10.27
2022-10-17T07:03:36.186Z,8.20
2022-10-17T07:06:03.293Z,7.13
2022-10-17T07:08:30.420Z,9.30
2022-10-17T07:10:57.901Z,10.95
2022-10-17T07:13:25.497Z,11.07
2022-10-17T07:15:54.936Z,8.30
2022-10-17T07:18:22.077Z,9.82
2022-10-17T07:20:55.843Z,8.88
2022-10-17T07:23:23.399Z,9.73
2022-10-17T07:25:51.694Z,8.65
2022-10-17T07:28:26.381Z,8.93
2022-10-17T07:31:03.840Z,8.93
2022-10-17T07:33:31.016Z,9.73
2022-10-17T07:36:00.240Z,10.40
2022-10-17T07:38:27.901Z,11.15
2022-10-17T07:40:58.660Z,15.65
2022-10-17T07:43:26.378Z,11.98
2022-10-17T07:45:53.478Z,9.32
2022-10-17T07:48:21.342Z,9.82
2022-10-17T07:50:48.899Z,10.23
2022-10-17T07:53:15.974Z,10.52
2022-10-17T07:55:44.777Z,11.95
2022-10-17T07:58:11.817Z,11.90
2022-10-17T08:00:39.271Z,9.40
2022-10-17T08:03:06.658Z,11.88
2022-10-17T08:05:34.314Z,12.07
2022-10-17T08:08:02.574Z,11.82
2022-10-17T08:10:29.728Z,9.63
2022-10-17T08:12:57.979Z,10.53
2022-10-17T08:15:29.387Z,12.63
2022-10-17T08:17:59.120Z,11.48
2022-10-17T08:20:31.888Z,14.65
2022-10-17T08:23:01.924Z,12.00
2022-10-17T08:25:28.975Z,10.20
2022-10-17T08:27:59.120Z,12.77
2022-10-17T08:30:30.676Z,12.25
2022-10-17T08:32:58.075Z,11.82
2022-10-17T08:35:25.085Z,13.20
2022-10-17T08:37:52.164Z,11.68
2022-10-17T08:40:21.537Z,11.90
2022-10-17T08:42:48.562Z,10.93
2022-10-17T08:45:15.613Z,11.02
2022-10-17T08:50:50.951Z,10.90
2022-10-17T08:53:17.910Z,12.43
2022-10-17T08:55:46.724Z,12.80
2022-10-17T08:58:15.379Z,14.68
2022-10-17T09:00:46.529Z,10.93
2022-10-17T09:03:32.132Z,14.80
2022-10-17T09:06:17.617Z,14.27
2022-10-17T09:09:03.325Z,13.13
2022-10-17T09:11:49.192Z,12.85
2022-10-17T09:14:48.793Z,11.82
2022-10-17T09:17:16.075Z,12.23
2022-10-17T09:19:53.615Z,13.65
2022-10-17T09:22:25.600Z,11.80
2022-10-17T09:25:03.194Z,10.63
2022-10-17T09:27:40.702Z,9.25
2022-10-17T09:30:44.191Z,10.25
2022-10-17T09:33:42.378Z,9.98
2022-10-17T09:36:16.800Z,11.15
2022-10-17T09:38:45.535Z,9.63
2022-10-17T09:41:42.959Z,9.73
2022-10-17T09:44:21.711Z,8.85
2022-10-17T09:47:09.018Z,10.88
2022-10-17T09:49:39.970Z,9.57
2022-10-17T09:52:10.258Z,9.88
2022-10-17T09:54:51.231Z,9.68
2022-10-17T09:57:19.384Z,9.63
2022-10-17T09:59:48.292Z,8.65
2022-10-17T10:02:20.160Z,10.77
2022-10-17T10:05:25.745Z,10.75
2022-10-17T10:08:06.732Z,9.60
2022-10-17T10:10:36.614Z,10.88
2022-10-17T10:13:08.071Z,10.75
2022-10-17T10:15:40.980Z,9.32
2022-10-17T10:18:28.610Z,10.85
2022-10-17T10:21:04.465Z,10.43
2022-10-17T10:23:31.561Z,9.43
2022-10-17T10:26:06.458Z,9.50
2022-10-17T10:28:36.844Z,12.13
2022-10-17T10:31:05.594Z,10.98
2022-10-17T10:33:34.201Z,11.30
2022-10-17T10:36:03.276Z,10.88
2022-10-17T10:38:32.319Z,10.90
2022-10-17T10:41:07.866Z,10.25
2022-10-17T10:43:40.664Z,11.30
2022-10-17T10:46:26.224Z,10.75
2022-10-17T10:49:01.188Z,10.10
2022-10-17T10:51:31.371Z,11.98
2022-10-17T10:54:04.212Z,10.35
2022-10-17T10:56:38.092Z,11.82
2022-10-17T10:59:19.035Z,9.77
2022-10-17T11:01:49.521Z,9.88
2022-10-17T11:04:19.607Z,9.07
2022-10-17T11:06:46.914Z,11.95
2022-10-17T11:09:18.984Z,8.40
2022-10-17T11:11:50.679Z,10.73
2022-10-17T11:14:36.670Z,10.55
2022-10-17T11:17:19.277Z,9.13
2022-10-17T11:19:52.627Z,10.27
2022-10-17T11:22:31.976Z,11.80
2022-10-17T11:25:28.168Z,12.57
2022-10-17T11:27:55.541Z,10.85
2022-10-17T11:30:26.539Z,11.25
2022-10-17T11:32:56.740Z,9.93
2022-10-17T11:35:23.731Z,10.67
2022-10-17T11:37:53.763Z,10.38
2022-10-17T11:40:29.858Z,10.98
2022-10-17T11:43:05.928Z,10.75
2022-10-17T11:45:37.812Z,12.57
2022-10-17T11:48:22.763Z,12.05
2022-10-17T11:53:58.410Z,11.50
2022-10-17T11:56:45.618Z,12.43
2022-10-17T11:59:42.313Z,11.35
2022-10-17T12:02:12.451Z,12.43
2022-10-17T12:05:01.793Z,12.88
2022-10-17T12:07:50.479Z,10.95
2022-10-17T12:10:17.461Z,11.80
2022-10-17T12:12:44.522Z,13.05
2022-10-17T12:15:14.576Z,15.67
2022-10-17T12:17:43.853Z,12.60
2022-10-17T12:20:26.043Z,15.48
2022-10-17T12:23:02.981Z,12.80
2022-10-17T12:25:32.723Z,15.25
2022-10-17T12:28:05.606Z,13.90
2022-10-17T12:30:33.162Z,14.35
2022-10-17T12:33:07.706Z,14.73
2022-10-17T12:35:35.710Z,16.55
2022-10-17T12:38:16.560Z,15.55
2022-10-17T12:40:48.510Z,16.73
2022-10-17T12:43:15.967Z,16.02
2022-10-17T12:45:48.613Z,14.85
2022-10-17T12:48:33.976Z,18.20
2022-10-17T12:51:30.819Z,13.50
2022-10-17T12:54:00.583Z,16.05
2022-10-17T12:56:38.459Z,19.33
2022-10-17T12:59:15.456Z,17.98
2022-10-17T13:01:46.292Z,17.10
2022-10-17T13:04:16.358Z,17.58
2022-10-17T13:06:48.083Z,18.53
2022-10-17T13:09:25.025Z,16.63
2022-10-17T13:11:52.276Z,17.40
2022-10-17T13:14:20.353Z,17.38
2022-10-17T13:17:01.184Z,17.30
2022-10-17T13:19:46.818Z,17.50
2022-10-17T13:22:16.079Z,19.17
2022-10-17T13:24:43.122Z,17.63
2022-10-17T13:27:22.626Z,17.98
2022-10-17T13:29:52.151Z,17.65
2022-10-17T13:32:20.481Z,19.90
2022-10-17T13:34:47.511Z,17.88
2022-10-17T13:37:16.297Z,16.20
2022-10-17T13:39:55.133Z,17.35
2022-10-17T13:42:30.192Z,14.05
2022-10-17T13:44:58.127Z,14.48
2022-10-17T13:47:26.288Z,14.47
2022-10-17T13:49:55.371Z,14.73
2022-10-17T13:52:24.220Z,14.50
2022-10-17T13:54:53.031Z,15.60
2022-10-17T13:57:33.921Z,15.18
2022-10-17T14:00:21.143Z,12.70
2022-10-17T14:02:48.473Z,11.82
2022-10-17T14:05:20.534Z,13.05
2022-10-17T14:08:22.971Z,13.38
2022-10-17T14:10:48.683Z,12.02
2022-10-17T14:13:20.666Z,12.32
2022-10-17T14:15:47.827Z,12.37
2022-10-17T14:18:18.100Z,12.35
2022-10-17T14:21:31.694Z,12.63
2022-10-17T14:23:37.963Z,15.55
2022-10-17T14:26:20.980Z,12.43
2022-10-17T14:28:50.921Z,13.13
2022-10-17T14:31:30.766Z,16.45
2022-10-17T14:33:58.098Z,13.18
2022-10-17T14:36:51.223Z,14.93
2022-10-17T14:39:22.897Z,14.00
2022-10-17T14:41:50.341Z,13.87
2022-10-17T14:44:30.976Z,15.03
2022-10-17T14:47:00.243Z,13.40
2022-10-17T14:49:36.447Z,14.07
2022-10-17T14:52:23.282Z,11.20
2022-10-17T14:54:50.749Z,13.60
2022-10-17T14:57:19.291Z,11.52
2022-10-17T14:59:55.033Z,12.60
2022-10-17T15:02:25.900Z,13.60
2022-10-17T15:04:53.499Z,12.55
2022-10-17T15:07:24.018Z,12.90
2022-10-17T15:09:52.490Z,12.07
2022-10-17T15:12:21.462Z,13.80
2022-10-17T15:14:48.647Z,15.18
2022-10-17T15:17:20.764Z,13.18
2022-10-17T15:19:48.356Z,16.35
2022-10-17T15:22:16.128Z,13.88
2022-10-17T15:24:48.648Z,14.23
2022-10-17T15:27:17.517Z,18.08
2022-10-17T15:29:45.091Z,16.83
2022-10-17T15:32:12.292Z,14.23
2022-10-17T15:34:39.310Z,15.88
2022-10-17T15:37:06.915Z,16.48
2022-10-17T15:39:34.028Z,19.92
2022-10-17T15:42:01.067Z,16.45
2022-10-17T15:44:28.793Z,19.73
2022-10-17T15:46:56.875Z,16.63
2022-10-17T15:49:23.906Z,16.98
2022-10-17T15:51:54.359Z,17.20
2022-10-17T15:54:22.360Z,15.27
2022-10-17T15:56:52.134Z,14.05
2022-10-17T15:59:20.805Z,15.85
2022-10-17T16:01:48.722Z,15.75
2022-10-17T16:04:18.976Z,15.18
2022-10-17T16:06:46.052Z,14.77
2022-10-17T16:09:13.221Z,17.63
2022-10-17T16:11:41.221Z,15.95
2022-10-17T16:14:12.903Z,14.52
2022-10-17T16:16:39.968Z,14.65
2022-10-17T16:19:07.119Z,15.95
2022-10-17T16:21:36.458Z,16.57
2022-10-17T16:24:04.558Z,16.80
2022-10-17T16:26:31.675Z,17.40
2022-10-17T16:29:04.303Z,14.82
2022-10-17T16:31:33.755Z,17.42
2022-10-17T16:34:04.274Z,14.95
2022-10-17T16:36:31.348Z,15.57
2022-10-17T16:38:58.584Z,18.60
2022-10-17T16:41:27.225Z,14.20
2022-10-17T16:43:58.084Z,16.73
2022-10-17T16:46:26.032Z,17.42
2022-10-17T16:48:53.477Z,16.90
2022-10-17T16:51:20.706Z,16.27
2022-10-17T16:53:50.066Z,15.68
2022-10-17T16:56:21.440Z,15.25
2022-10-17T16:58:50.267Z,17.65
2022-10-17T17:01:23.017Z,15.52
2022-10-17T17:03:50.513Z,17.75
2022-10-17T17:06:19.521Z,15.83
2022-10-17T17:08:46.926Z,16.52
2022-10-17T17:11:14.934Z,17.55
2022-10-17T17:13:42.102Z,14.98
2022-10-17T17:16:09.290Z,16.73
2022-10-17T17:18:36.725Z,19.67
2022-10-17T17:21:05.347Z,16.95
2022-10-17T17:23:33.953Z,17.57
2022-10-17T17:26:02.416Z,17.05
2022-10-17T17:28:31.783Z,17.88
2022-10-17T17:30:58.920Z,20.33
2022-10-17T17:33:26.386Z,19.77
2022-10-17T17:36:00.496Z,19.17
2022-10-17T17:38:30.759Z,19.10
2022-10-17T17:40:57.892Z,16.98
2022-10-17T17:43:29.561Z,21.15
2022-10-17T17:45:56.662Z,21.38
2022-10-17T17:48:23.693Z,19.23
2022-10-17T17:50:50.709Z,19.33
2022-10-17T17:53:19.918Z,20.13
2022-10-17T17:55:46.983Z,19.27
2022-10-17T17:58:21.367Z,23.23
2022-10-17T18:00:49.455Z,18.77
2022-10-17T18:03:16.469Z,19.67
2022-10-17T18:05:43.486Z,19.27
2022-10-17T18:08:10.496Z,19.90
2022-10-17T18:10:37.502Z,22.67
2022-10-17T18:13:10.758Z,21.80
2022-10-17T18:15:40.653Z,21.27
2022-10-17T18:18:07.664Z,21.42
2022-10-17T18:20:36.007Z,19.52
2022-10-17T18:23:04.257Z,22.80
2022-10-17T18:25:34.377Z,18.02
2022-10-17T18:28:01.526Z,20.85
2022-10-17T18:30:31.024Z,22.67
2022-10-17T18:33:01.741Z,21.00
2022-10-17T18:35:28.878Z,24.38
2022-10-17T18:37:56.954Z,25.38
2022-10-17T18:40:24.013Z,26.75
2022-10-17T18:42:51.018Z,23.03
2022-10-17T18:45:18.010Z,25.15
2022-10-17T18:47:47.236Z,28.75
2022-10-17T18:50:15.179Z,24.98
2022-10-17T18:52:45.042Z,21.35
2022-10-17T18:55:12.085Z,22.50
2022-10-17T18:57:39.139Z,23.75
2022-10-17T19:00:07.495Z,23.17
2022-10-17T19:02:38.088Z,22.98
2022-10-17T19:05:05.492Z,20.38
2022-10-17T19:07:32.804Z,21.08
2022-10-17T19:09:59.932Z,26.67
2022-10-17T19:12:27.015Z,22.05
2022-10-17T19:14:56.096Z,21.52
2022-10-17T19:17:29.611Z,25.85
2022-10-17T19:19:56.891Z,27.75
2022-10-17T19:22:23.896Z,25.67
2022-10-17T19:24:53.727Z,27.45
2022-10-17T19:27:25.052Z,22.70
2022-10-17T19:29:52.132Z,19.60
2022-10-17T19:32:22.130Z,23.63
2022-10-17T19:34:53.433Z,24.83
2022-10-17T19:37:20.649Z,24.95
2022-10-17T19:39:49.014Z,22.20
2022-10-17T19:42:16.103Z,22.73
2022-10-17T19:44:43.116Z,22.20
2022-10-17T19:47:12.983Z,22.88
2022-10-17T19:49:40.179Z,23.13
2022-10-17T19:52:10.019Z,24.47
2022-10-17T19:54:43.143Z,23.38
2022-10-17T19:57:10.637Z,24.52
2022-10-17T19:59:37.865Z,22.40
2022-10-17T20:02:04.960Z,25.48
2022-10-17T20:04:32.040Z,27.67
2022-10-17T20:07:00.110Z,26.10
2022-10-17T20:09:27.379Z,22.52
2022-10-17T20:11:55.581Z,24.00
2022-10-17T20:14:28.183Z,26.55
2022-10-17T20:16:58.166Z,26.45
2022-10-17T20:19:28.178Z,24.10
2022-10-17T20:21:58.131Z,27.00
2022-10-17T20:24:25.751Z,25.48
2022-10-17T20:26:58.573Z,23.98
2022-10-17T20:29:27.836Z,24.00
2022-10-17T20:31:54.895Z,22.65
2022-10-17T20:34:21.930Z,22.85
2022-10-17T20:36:49.240Z,22.60
2022-10-17T20:39:17.292Z,24.77
2022-10-17T20:41:44.644Z,23.60
2022-10-17T20:44:12.193Z,23.33
2022-10-17T20:46:45.377Z,22.02
2022-10-17T20:49:24.721Z,21.75
2022-10-17T20:51:56.035Z,25.13
2022-10-17T20:54:23.162Z,24.55
2022-10-17T20:56:50.172Z,23.65
2022-10-17T20:59:17.924Z,21.50
2022-10-17T21:01:46.133Z,22.73
2022-10-17T21:04:44.145Z,21.48
2022-10-17T21:07:00.989Z,22.48
2022-10-17T21:09:28.133Z,21.88
2022-10-17T21:11:57.958Z,22.20
2022-10-17T21:14:25.734Z,23.13
2022-10-17T21:16:53.147Z,22.48
2022-10-17T21:19:25.762Z,23.27
2022-10-17T21:21:52.818Z,21.80
2022-10-17T21:24:22.850Z,21.00
2022-10-17T21:26:54.994Z,21.88
2022-10-17T21:29:22.579Z,20.47
2022-10-17T21:31:49.608Z,22.15
2022-10-17T21:34:21.134Z,25.63
2022-10-17T21:36:48.716Z,21.83
2022-10-17T21:39:18.886Z,20.27
2022-10-17T21:41:46.017Z,23.67
2022-10-17T21:44:22.551Z,22.05
2022-10-17T21:46:49.699Z,21.60
2022-10-17T21:49:18.450Z,20.48
2022-10-17T21:51:47.456Z,20.98
2022-10-17T21:54:15.014Z,21.98
2022-10-17T21:56:42.105Z,21.52
2022-10-17T21:59:09.308Z,21.98
2022-10-17T22:01:39.988Z,24.98
2022-10-17T22:04:10.803Z,19.48
2022-10-17T22:06:41.245Z,22.75
2022-10-17T22:09:19.151Z,22.63
2022-10-17T22:11:51.307Z,25.50
2022-10-17T22:14:19.961Z,21.35
2022-10-17T22:16:52.703Z,22.77
2022-10-17T22:19:22.934Z,22.27
2022-10-17T22:21:50.036Z,23.23
2022-10-17T22:24:18.151Z,21.55
2022-10-17T22:26:45.634Z,21.38
2022-10-17T22:29:13.175Z,22.77
2022-10-17T22:31:40.553Z,22.45
2022-10-17T22:34:10.668Z,22.30
2022-10-17T22:36:37.679Z,22.98
2022-10-17T22:39:04.951Z,21.87
2022-10-17T22:41:32.002Z,22.73
2022-10-17T22:43:59.389Z,21.92
2022-10-17T22:46:26.474Z,21.15
2022-10-17T22:48:53.574Z,20.00
2022-10-17T22:51:20.688Z,21.13
2022-10-17T22:53:47.850Z,26.55
2022-10-17T22:56:16.242Z,24.77
2022-10-17T22:58:43.686Z,26.05
2022-10-17T23:01:13.733Z,28.45
2022-10-17T23:03:40.912Z,24.42
2022-10-17T23:06:08.249Z,23.23
2022-10-17T23:08:35.662Z,21.63
2022-10-17T23:11:02.689Z,23.30
2022-10-17T23:13:31.314Z,25.77
2022-10-17T23:15:59.060Z,25.13
2022-10-17T23:21:06.378Z,24.48
2022-10-17T23:23:33.380Z,20.63
2022-10-17T23:26:11.153Z,20.60
2022-10-17T23:28:38.548Z,22.35
2022-10-17T23:31:18.892Z,21.43
2022-10-17T23:33:46.955Z,21.92
2022-10-17T23:36:14.878Z,22.10
2022-10-17T23:38:42.398Z,20.90
2022-10-17T23:41:09.816Z,18.80
2022-10-17T23:43:36.939Z,24.00
2022-10-17T23:46:11.746Z,25.33
2022-10-17T23:48:38.890Z,22.08
2022-10-17T23:51:06.429Z,20.77
2022-10-17T23:53:33.495Z,22.35
2022-10-17T23:56:00.505Z,21.55
2022-10-17T23:58:27.819Z,21.75
